createdAt,value
2023-04-14T00:02:15.593Z,80.55
2023-04-14T00:05:22.322Z,82.17
2023-04-14T00:08:29.092Z,81.80
2023-04-14T00:11:36.696Z,78.78
2023-04-14T00:14:43.719Z,82.25
2023-04-14T00:17:51.110Z,87.24
2023-04-14T00:20:57.252Z,88.50
2023-04-14T00:24:03.335Z,84.69
2023-04-14T00:27:11.260Z,86.01
2023-04-14T00:30:17.327Z,84.89
2023-04-14T00:33:23.612Z,84.99
2023-04-14T00:36:29.673Z,86.77
2023-04-14T00:39:35.832Z,86.03
2023-04-14T00:42:47.148Z,86.82
2023-04-14T00:45:53.722Z,85.91
2023-04-14T00:48:59.856Z,87.31
2023-04-14T00:52:07.549Z,88.18
2023-04-14T00:55:13.846Z,87.86
2023-04-14T00:58:21.687Z,88.60
2023-04-14T01:01:29.316Z,89.66
2023-04-14T01:04:52.209Z,87.65
2023-04-14T01:08:00.167Z,89.21
2023-04-14T01:11:16.136Z,97.66
2023-04-14T01:14:37.642Z,100.00
2023-04-14T01:17:51.215Z,97.59
2023-04-14T01:21:03.914Z,100.00
2023-04-14T01:24:51.727Z,97.80
2023-04-14T01:28:12.004Z,95.23
2023-04-14T01:31:26.986Z,93.84
2023-04-14T01:34:37.902Z,93.22
2023-04-14T01:37:48.870Z,93.36
2023-04-14T01:40:59.184Z,93.97
2023-04-14T01:44:07.912Z,96.20
2023-04-14T01:47:19.151Z,93.66
2023-04-14T01:50:26.586Z,97.63
2023-04-14T01:53:34.274Z,95.63
2023-04-14T01:56:42.290Z,96.81
2023-04-14T01:59:49.964Z,97.26
2023-04-14T02:02:58.537Z,96.68
2023-04-14T02:06:06.406Z,96.51
2023-04-14T02:09:13.995Z,100.00
2023-04-14T02:12:22.429Z,100.00
2023-04-14T02:15:29.333Z,100.00
2023-04-14T02:18:38.968Z,100.00
2023-04-14T02:21:46.482Z,99.95
2023-04-14T02:24:55.344Z,100.00
2023-04-14T02:28:05.154Z,100.00
2023-04-14T02:31:16.797Z,100.00
2023-04-14T02:34:29.676Z,100.00
2023-04-14T02:37:45.252Z,100.00
2023-04-14T02:40:52.433Z,97.30
2023-04-14T02:44:05.864Z,99.29
2023-04-14T02:47:15.016Z,99.45
2023-04-14T02:50:24.642Z,100.00
2023-04-14T02:53:31.391Z,100.00
2023-04-14T02:56:37.780Z,99.78
2023-04-14T02:59:47.122Z,100.00
2023-04-14T03:02:54.611Z,100.00
2023-04-14T03:06:02.386Z,100.00
2023-04-14T03:09:08.973Z,100.00
2023-04-14T03:12:16.119Z,99.96
2023-04-14T03:15:23.980Z,100.00
2023-04-14T03:18:32.254Z,100.00
2023-04-14T03:21:40.731Z,100.00
2023-04-14T03:24:47.454Z,100.00
2023-04-14T03:27:55.729Z,98.09
2023-04-14T03:31:06.512Z,100.00
2023-04-14T03:34:15.514Z,100.00
2023-04-14T03:37:27.510Z,100.00
2023-04-14T03:40:38.562Z,100.00
2023-04-14T03:43:46.807Z,100.00
2023-04-14T03:46:54.664Z,100.00
2023-04-14T03:50:04.536Z,100.00
2023-04-14T03:53:14.466Z,100.00
2023-04-14T03:56:21.372Z,100.00
2023-04-14T03:59:29.648Z,100.00
2023-04-14T04:02:37.413Z,99.15
2023-04-14T04:05:45.328Z,98.15
2023-04-14T04:08:55.640Z,98.51
2023-04-14T04:12:04.636Z,100.00
2023-04-14T04:15:11.521Z,100.00
2023-04-14T04:18:19.577Z,100.00
2023-04-14T04:21:30.083Z,100.00
2023-04-14T04:24:40.477Z,100.00
2023-04-14T04:27:47.722Z,100.00
2023-04-14T04:30:56.182Z,100.00
2023-04-14T04:34:04.319Z,100.00
2023-04-14T04:37:12.079Z,100.00
2023-04-14T04:40:19.925Z,100.00
2023-04-14T04:43:26.185Z,100.00
2023-04-14T04:46:49.902Z,100.00
2023-04-14T04:49:56.600Z,100.00
2023-04-14T04:53:02.931Z,100.00
2023-04-14T04:56:10.666Z,98.04
2023-04-14T04:59:17.093Z,95.72
2023-04-14T05:02:23.467Z,95.57
2023-04-14T05:05:29.757Z,94.74
2023-04-14T05:08:35.991Z,92.82
2023-04-14T05:11:43.552Z,91.35
2023-04-14T05:14:49.624Z,93.26
2023-04-14T05:17:55.853Z,91.19
2023-04-14T05:21:05.574Z,91.94
2023-04-14T05:24:11.675Z,89.91
2023-04-14T05:27:19.097Z,90.17
2023-04-14T05:30:26.619Z,87.81
2023-04-14T05:33:32.641Z,86.71
2023-04-14T05:36:38.690Z,83.48
2023-04-14T05:39:45.060Z,80.14
2023-04-14T05:43:11.634Z,80.80
2023-04-14T05:46:17.999Z,76.21
2023-04-14T05:49:24.637Z,72.27
2023-04-14T05:52:31.017Z,70.54
2023-04-14T05:55:37.234Z,68.29
2023-04-14T05:58:44.737Z,67.04
2023-04-14T06:01:51.709Z,68.01
2023-04-14T06:04:59.860Z,69.82
2023-04-14T06:08:06.280Z,69.14
2023-04-14T06:11:13.588Z,70.02
2023-04-14T06:14:21.182Z,71.02
2023-04-14T06:17:28.240Z,67.11
2023-04-14T06:20:36.297Z,67.57
2023-04-14T06:23:42.476Z,72.16
2023-04-14T06:26:49.165Z,75.38
2023-04-14T06:30:00.258Z,76.19
2023-04-14T06:33:06.387Z,76.14
2023-04-14T06:36:13.940Z,79.70
2023-04-14T06:39:21.235Z,79.37
2023-04-14T06:42:27.526Z,83.41
2023-04-14T06:45:35.242Z,82.91
2023-04-14T06:48:41.711Z,82.95
2023-04-14T06:51:48.041Z,80.61
2023-04-14T06:54:54.344Z,75.06
2023-04-14T06:58:00.431Z,72.00
2023-04-14T07:01:08.032Z,69.22
2023-04-14T07:04:15.624Z,69.48
2023-04-14T07:07:21.819Z,65.81
2023-04-14T07:10:27.991Z,64.94
2023-04-14T07:13:34.578Z,67.55
2023-04-14T07:16:41.975Z,64.46
2023-04-14T07:19:48.461Z,64.93
2023-04-14T07:22:54.438Z,60.69
2023-04-14T07:26:01.619Z,56.69
2023-04-14T07:29:07.943Z,54.76
2023-04-14T07:32:16.091Z,54.31
2023-04-14T07:35:22.516Z,52.54
2023-04-14T07:38:28.750Z,51.16
2023-04-14T07:41:34.931Z,52.13
2023-04-14T07:44:41.351Z,51.94
2023-04-14T07:47:49.357Z,50.94
2023-04-14T07:50:55.925Z,49.88
2023-04-14T07:54:02.711Z,48.87
2023-04-14T07:57:10.988Z,49.86
2023-04-14T08:00:17.831Z,51.47
2023-04-14T08:03:25.674Z,50.15
2023-04-14T08:06:32.147Z,51.06
2023-04-14T08:09:38.265Z,49.27
2023-04-14T08:12:44.487Z,49.72
2023-04-14T08:15:50.822Z,50.34
2023-04-14T08:18:58.390Z,50.19
2023-04-14T08:22:04.430Z,51.38
2023-04-14T08:25:12.216Z,50.72
2023-04-14T08:28:18.613Z,53.18
2023-04-14T08:31:25.843Z,52.64
2023-04-14T08:34:33.821Z,53.19
2023-04-14T08:37:40.314Z,54.40
2023-04-14T08:40:49.014Z,53.88
2023-04-14T08:43:55.393Z,52.29
2023-04-14T08:47:02.002Z,53.24
2023-04-14T08:50:16.869Z,54.16
2023-04-14T08:53:27.520Z,55.03
2023-04-14T08:56:38.300Z,54.74
2023-04-14T08:59:45.709Z,55.56
2023-04-14T09:02:52.876Z,54.74
2023-04-14T09:06:01.715Z,54.43
2023-04-14T09:09:08.153Z,54.33
2023-04-14T09:12:17.310Z,54.22
2023-04-14T09:15:25.560Z,55.04
2023-04-14T09:18:34.873Z,54.84
2023-04-14T09:21:52.525Z,55.47
2023-04-14T09:25:01.113Z,55.00
2023-04-14T09:28:07.858Z,55.77
2023-04-14T09:31:14.686Z,56.67
2023-04-14T09:34:22.264Z,56.90
2023-04-14T09:37:43.704Z,58.34
2023-04-14T09:40:50.115Z,61.41
2023-04-14T09:43:56.474Z,60.97
2023-04-14T09:47:05.224Z,61.07
2023-04-14T09:50:12.276Z,60.02
2023-04-14T09:53:27.190Z,59.09
2023-04-14T09:56:33.344Z,58.86
2023-04-14T09:59:40.718Z,58.27
2023-04-14T10:02:51.530Z,54.65
2023-04-14T10:05:57.639Z,53.04
2023-04-14T10:09:06.090Z,52.84
2023-04-14T10:12:13.540Z,53.28
2023-04-14T10:15:19.639Z,52.04
2023-04-14T10:18:25.716Z,51.00
2023-04-14T10:21:32.035Z,48.18
2023-04-14T10:24:41.844Z,47.49
2023-04-14T10:27:49.721Z,47.39
2023-04-14T10:30:57.566Z,47.25
2023-04-14T10:34:09.122Z,46.91
2023-04-14T10:37:16.470Z,45.38
2023-04-14T10:40:24.402Z,45.37
2023-04-14T10:43:30.772Z,43.89
2023-04-14T10:46:44.927Z,40.99
2023-04-14T10:49:51.074Z,42.02
2023-04-14T10:52:59.020Z,39.79
2023-04-14T10:56:07.480Z,34.90
2023-04-14T10:59:13.979Z,33.02
2023-04-14T11:02:25.035Z,33.19
2023-04-14T11:05:33.383Z,34.09
2023-04-14T11:08:39.760Z,32.77
2023-04-14T11:11:49.547Z,31.53
2023-04-14T11:15:03.895Z,32.90
2023-04-14T11:18:13.823Z,33.98
2023-04-14T11:21:20.509Z,34.07
2023-04-14T11:24:27.632Z,33.57
2023-04-14T11:27:36.276Z,35.29
2023-04-14T11:30:44.256Z,34.21
2023-04-14T11:33:51.070Z,33.87
2023-04-14T11:36:58.039Z,33.15
2023-04-14T11:40:05.666Z,34.17
2023-04-14T11:43:13.312Z,33.62
2023-04-14T11:46:22.245Z,33.19
2023-04-14T11:49:36.723Z,35.50
2023-04-14T11:52:46.252Z,34.25
2023-04-14T11:55:54.085Z,34.30
2023-04-14T11:59:03.239Z,34.86
2023-04-14T12:02:17.540Z,35.28
2023-04-14T12:05:30.512Z,34.74
2023-04-14T12:08:37.092Z,35.04
2023-04-14T12:11:43.412Z,35.52
2023-04-14T12:14:51.554Z,36.55
2023-04-14T12:17:58.517Z,38.19
2023-04-14T12:21:08.796Z,37.15
2023-04-14T12:24:17.294Z,36.51
2023-04-14T12:27:24.760Z,36.93
2023-04-14T12:30:32.536Z,43.19
2023-04-14T12:33:39.100Z,49.57
2023-04-14T12:36:52.213Z,58.32
2023-04-14T12:40:01.079Z,62.44
2023-04-14T12:43:08.383Z,66.52
2023-04-14T12:46:26.016Z,65.78
2023-04-14T12:49:39.939Z,69.88
2023-04-14T12:52:46.446Z,72.63
2023-04-14T12:56:07.210Z,77.28
2023-04-14T12:59:14.877Z,79.41
2023-04-14T13:02:23.386Z,82.55
2023-04-14T13:05:30.121Z,84.12
2023-04-14T13:08:36.549Z,96.68
2023-04-14T13:11:44.384Z,95.38
2023-04-14T13:14:50.869Z,100.00
2023-04-14T13:17:58.623Z,99.34
2023-04-14T13:21:05.366Z,97.17
2023-04-14T13:24:11.748Z,92.27
2023-04-14T13:27:18.339Z,90.28
2023-04-14T13:30:24.557Z,95.60
2023-04-14T13:33:32.205Z,95.03
2023-04-14T13:36:38.801Z,96.19
2023-04-14T13:39:45.093Z,99.27
2023-04-14T13:42:51.185Z,100.00
2023-04-14T13:45:59.250Z,100.00
2023-04-14T13:49:07.192Z,100.00
2023-04-14T13:52:13.601Z,100.00
2023-04-14T13:55:20.451Z,100.00
2023-04-14T13:58:27.029Z,100.00
2023-04-14T14:01:33.514Z,100.00
2023-04-14T14:04:41.359Z,100.00
2023-04-14T14:07:47.619Z,100.00
2023-04-14T14:10:54.601Z,100.00
2023-04-14T14:14:01.740Z,100.00
2023-04-14T14:17:08.472Z,100.00
2023-04-14T14:20:16.389Z,100.00
2023-04-14T14:23:22.822Z,100.00
2023-04-14T14:26:29.265Z,100.00
2023-04-14T14:29:36.001Z,100.00
2023-04-14T14:32:42.503Z,100.00
2023-04-14T14:35:51.116Z,100.00
2023-04-14T14:38:57.956Z,100.00
2023-04-14T14:42:04.704Z,100.00
2023-04-14T14:45:12.098Z,100.00
2023-04-14T14:48:18.375Z,100.00
2023-04-14T14:51:27.836Z,100.00
2023-04-14T14:54:34.385Z,100.00
2023-04-14T14:57:41.266Z,100.00
2023-04-14T15:00:48.095Z,100.00
2023-04-14T15:03:55.893Z,100.00
2023-04-14T15:07:03.742Z,100.00
2023-04-14T15:10:10.785Z,100.00
2023-04-14T15:13:17.379Z,100.00
2023-04-14T15:16:23.521Z,100.00
2023-04-14T15:19:29.840Z,100.00
2023-04-14T15:22:37.889Z,100.00
2023-04-14T15:25:44.181Z,100.00
2023-04-14T15:28:50.438Z,100.00
2023-04-14T15:31:56.642Z,100.00
2023-04-14T15:35:02.973Z,100.00
2023-04-14T15:38:10.619Z,100.00
2023-04-14T15:41:17.211Z,100.00
2023-04-14T15:44:24.186Z,100.00
2023-04-14T15:47:31.816Z,100.00
2023-04-14T15:50:44.595Z,100.00
2023-04-14T15:53:52.992Z,100.00
2023-04-14T15:56:59.112Z,100.00
2023-04-14T16:00:07.759Z,100.00
2023-04-14T16:03:14.959Z,100.00
2023-04-14T16:06:21.579Z,100.00
2023-04-14T16:09:29.372Z,100.00
2023-04-14T16:12:36.756Z,100.00
2023-04-14T16:15:42.889Z,100.00
2023-04-14T16:18:49.400Z,100.00
2023-04-14T16:21:58.626Z,100.00
2023-04-14T16:25:07.506Z,100.00
2023-04-14T16:28:13.580Z,100.00
2023-04-14T16:31:19.734Z,100.00
2023-04-14T16:34:25.998Z,100.00
2023-04-14T16:37:32.600Z,100.00
2023-04-14T16:40:41.470Z,100.00
2023-04-14T16:43:47.837Z,100.00
2023-04-14T16:46:54.158Z,100.00
2023-04-14T16:50:00.631Z,100.00
2023-04-14T16:53:06.849Z,100.00
2023-04-14T16:56:14.417Z,100.00
2023-04-14T16:59:20.658Z,100.00
2023-04-14T17:02:27.245Z,100.00
2023-04-14T17:05:33.837Z,100.00
2023-04-14T17:08:40.554Z,100.00
2023-04-14T17:11:48.882Z,100.00
2023-04-14T17:14:55.149Z,100.00
2023-04-14T17:18:01.565Z,100.00
2023-04-14T17:21:08.010Z,100.00
2023-04-14T17:24:14.803Z,100.00
2023-04-14T17:27:23.115Z,100.00
2023-04-14T17:30:30.125Z,100.00
2023-04-14T17:33:36.483Z,100.00
2023-04-14T17:36:43.086Z,100.00
2023-04-14T17:39:50.167Z,100.00
2023-04-14T17:42:58.689Z,100.00
2023-04-14T17:46:05.694Z,100.00
2023-04-14T17:49:11.778Z,100.00
2023-04-14T17:52:18.226Z,100.00
2023-04-14T17:55:24.395Z,100.00
2023-04-14T17:58:32.756Z,100.00
2023-04-14T18:01:39.023Z,100.00
2023-04-14T18:04:45.697Z,100.00
2023-04-14T18:07:52.157Z,100.00
2023-04-14T18:11:00.024Z,100.00
2023-04-14T18:14:08.702Z,100.00
2023-04-14T18:17:15.426Z,100.00
2023-04-14T18:20:25.793Z,100.00
2023-04-14T18:23:32.190Z,100.00
2023-04-14T18:26:38.640Z,100.00
2023-04-14T18:29:46.551Z,100.00
2023-04-14T18:32:53.864Z,100.00
2023-04-14T18:36:00.765Z,100.00
2023-04-14T18:39:07.960Z,100.00
2023-04-14T18:42:15.522Z,100.00
2023-04-14T18:45:23.499Z,100.00
2023-04-14T18:48:30.243Z,100.00
2023-04-14T18:51:36.393Z,100.00
2023-04-14T18:54:42.968Z,100.00
2023-04-14T18:57:49.616Z,100.00
2023-04-14T19:00:57.781Z,100.00
2023-04-14T19:04:04.152Z,100.00
2023-04-14T19:07:10.438Z,100.00
2023-04-14T19:10:16.478Z,100.00
2023-04-14T19:13:22.460Z,100.00
2023-04-14T19:16:30.116Z,100.00
2023-04-14T19:19:36.583Z,100.00
2023-04-14T19:22:42.552Z,100.00
2023-04-14T19:25:48.867Z,100.00
2023-04-14T19:28:58.671Z,100.00
2023-04-14T19:32:06.719Z,100.00
2023-04-14T19:35:13.245Z,100.00
2023-04-14T19:38:20.394Z,100.00
2023-04-14T19:41:26.400Z,100.00
2023-04-14T19:44:34.449Z,100.00
2023-04-14T19:47:42.488Z,100.00
2023-04-14T19:50:53.270Z,100.00
2023-04-14T19:54:01.151Z,100.00
2023-04-14T19:57:08.632Z,100.00
2023-04-14T20:00:16.882Z,100.00
2023-04-14T20:03:25.446Z,100.00
2023-04-14T20:06:32.945Z,100.00
2023-04-14T20:09:44.894Z,100.00
2023-04-14T20:12:51.875Z,100.00
2023-04-14T20:15:58.664Z,100.00
2023-04-14T20:19:06.551Z,100.00
2023-04-14T20:22:13.542Z,100.00
2023-04-14T20:25:19.890Z,100.00
2023-04-14T20:28:26.735Z,100.00
2023-04-14T20:31:33.298Z,100.00
2023-04-14T20:34:40.907Z,100.00
2023-04-14T20:37:47.669Z,100.00
2023-04-14T20:40:55.304Z,100.00
2023-04-14T20:44:01.915Z,100.00
2023-04-14T20:47:08.466Z,100.00
2023-04-14T20:50:16.821Z,100.00
2023-04-14T20:53:26.693Z,100.00
2023-04-14T20:56:34.219Z,100.00
2023-04-14T20:59:40.753Z,100.00
2023-04-14T21:02:48.887Z,100.00
2023-04-14T21:05:56.761Z,100.00
2023-04-14T21:09:03.445Z,100.00
2023-04-14T21:12:14.301Z,100.00
2023-04-14T21:15:48.361Z,100.00
2023-04-14T21:18:49.337Z,100.00
2023-04-14T21:21:56.661Z,100.00
2023-04-14T21:25:03.073Z,100.00
2023-04-14T21:28:09.347Z,100.00
2023-04-14T21:31:15.964Z,100.00
2023-04-14T21:34:22.481Z,100.00
2023-04-14T21:37:30.473Z,100.00
2023-04-14T21:40:37.001Z,100.00
2023-04-14T21:43:43.209Z,100.00
2023-04-14T21:57:48.574Z,100.00
2023-04-14T22:00:48.287Z,100.00
2023-04-14T22:03:56.038Z,100.00
2023-04-14T22:07:03.586Z,100.00
2023-04-14T22:10:10.541Z,100.00
2023-04-14T22:13:18.212Z,100.00
2023-04-14T22:16:25.593Z,100.00
2023-04-14T22:19:32.018Z,100.00
2023-04-14T22:22:38.405Z,100.00
2023-04-14T22:25:44.869Z,100.00
2023-04-14T22:28:52.887Z,100.00
2023-04-14T22:31:58.856Z,100.00
2023-04-14T22:35:05.411Z,100.00
2023-04-14T22:38:12.219Z,100.00
2023-04-14T22:41:19.778Z,100.00
2023-04-14T22:44:27.528Z,100.00
2023-04-14T22:47:34.155Z,100.00
2023-04-14T22:50:40.573Z,100.00
2023-04-14T22:53:47.004Z,100.00
2023-04-14T22:56:53.849Z,100.00
2023-04-14T23:00:09.094Z,100.00
2023-04-14T23:03:15.756Z,100.00
2023-04-14T23:06:23.010Z,100.00
2023-04-14T23:09:30.668Z,100.00
2023-04-14T23:12:37.513Z,100.00
2023-04-14T23:15:45.481Z,100.00
2023-04-14T23:18:53.120Z,100.00
2023-04-14T23:21:59.019Z,100.00
2023-04-14T23:25:05.288Z,100.00
2023-04-14T23:28:12.485Z,100.00
2023-04-14T23:31:19.927Z,100.00
2023-04-14T23:34:26.234Z,100.00
2023-04-14T23:37:32.444Z,100.00
2023-04-14T23:40:38.686Z,100.00
2023-04-14T23:43:46.246Z,100.00
2023-04-14T23:46:54.011Z,100.00
2023-04-14T23:50:00.664Z,100.00
2023-04-14T23:53:06.930Z,100.00
2023-04-14T23:56:13.220Z,100.00
2023-04-14T23:59:19.372Z,100.00
